Time;durP1;ratioP1;P1;durP2;ratioP2;P2;SDS_P1;SDS_P2;PMS_P1;PMS_P2;Temp;Humidity;BMP_temperature;BMP_pressure;BME280_temperature;BME280_humidity;BME280_pressure;Samples;Min_cycle;Max_cycle;Signal;HPM_P1;HPM_P2
2021/04/29 00:02:05;;;;;;;;;;;15.70;83.60;;;;;;4975590;28;93894;-61
2021/04/29 00:04:30;;;;;;;;;;;15.70;83.30;;;;;;4974453;28;93519;-62
2021/04/29 00:06:56;;;;;;;;;;;15.70;83.60;;;;;;4980077;28;92202;-62
2021/04/29 00:09:22;;;;;;;;;;;15.70;83.30;;;;;;4974417;28;95959;-61
2021/04/29 00:11:47;;;;;;;;;;;15.70;83.50;;;;;;4978062;28;93326;-61
2021/04/29 00:14:13;;;;;;;;;;;15.70;83.30;;;;;;4977990;28;93447;-61
2021/04/29 00:16:39;;;;;;;;;;;15.70;83.40;;;;;;4975937;28;92514;-62
2021/04/29 00:19:06;;;;;;;;;;;15.60;84.20;;;;;;4973942;28;92215;-62
2021/04/29 00:21:31;;;;;;;;;;;15.60;83.40;;;;;;4978195;28;92235;-61
2021/04/29 00:23:57;;;;;;;;;;;15.60;83.50;;;;;;4976941;28;93503;-62
2021/04/29 00:26:22;;;;;;;;;;;15.60;83.80;;;;;;4976383;28;91639;-62
2021/04/29 00:28:48;;;;;;;;;;;15.60;83.00;;;;;;4978691;28;93134;-62
2021/04/29 00:31:13;;;;;;;;;;;15.60;83.50;;;;;;4975604;28;92258;-62
2021/04/29 00:33:39;;;;;;;;;;;15.60;83.50;;;;;;4974973;28;93155;-62
2021/04/29 00:36:04;;;;;;;;;;;15.50;83.80;;;;;;4976580;28;93253;-62
2021/04/29 00:38:30;;;;;;;;;;;15.50;83.50;;;;;;4978013;28;92215;-62
2021/04/29 00:40:56;;;;;;;;;;;15.50;83.80;;;;;;4978095;28;92525;-62
2021/04/29 00:43:22;;;;;;;;;;;15.50;83.80;;;;;;4977017;28;93303;-62
2021/04/29 00:45:48;;;;;;;;;;;15.50;83.50;;;;;;4977124;28;93156;-61
2021/04/29 00:48:14;;;;;;;;;;;15.50;83.60;;;;;;4977124;28;94404;-61
2021/04/29 00:50:40;;;;;;;;;;;15.50;84.10;;;;;;4974526;28;91413;-62
2021/04/29 00:53:05;;;;;;;;;;;15.50;84.00;;;;;;4974641;28;93520;-62
2021/04/29 00:55:32;;;;;;;;;;;15.50;83.50;;;;;;4973857;28;94078;-61
2021/04/29 00:57:57;;;;;;;;;;;15.50;83.20;;;;;;4973341;28;93194;-62
2021/04/29 01:00:23;;;;;;;;;;;15.40;83.20;;;;;;4973750;28;93511;-61
2021/04/29 01:02:55;;;;;;;;;;;15.40;83.60;;;;;;4973999;28;93563;-61
2021/04/29 01:05:24;;;;;;;;;;;15.40;83.50;;;;;;4975058;28;93136;-61
2021/04/29 01:07:52;;;;;;;;;;;15.40;83.70;;;;;;4977058;28;92243;-61
2021/04/29 01:10:22;;;;;;;;;;;15.40;83.70;;;;;;4979492;28;93255;-61
2021/04/29 01:13:08;;;;;;;;;;;15.30;83.60;;;;;;4974009;28;92205;-61
2021/04/29 01:15:38;;;;;;;;;;;15.30;83.50;;;;;;4973706;28;92491;-62
2021/04/29 01:18:04;;;;;;;;;;;15.30;83.70;;;;;;4976405;28;92153;-62
2021/04/29 01:20:49;;;;;;;;;;;15.30;83.30;;;;;;4976688;28;92252;-61
2021/04/29 01:23:23;;;;;;;;;;;15.30;82.80;;;;;;4974386;28;94547;-61
2021/04/29 01:25:50;;;;;;;;;;;15.30;83.70;;;;;;4976885;28;92208;-62
2021/04/29 01:28:16;;;;;;;;;;;15.30;83.60;;;;;;4975441;28;92252;-61
2021/04/29 01:30:43;;;;;;;;;;;15.30;84.00;;;;;;4975151;28;93192;-62
2021/04/29 01:33:09;;;;;;;;;;;15.20;82.90;;;;;;4977714;28;92264;-62
2021/04/29 01:35:35;;;;;;;;;;;15.30;83.40;;;;;;4974831;28;93290;-61
2021/04/29 01:38:00;;;;;;;;;;;15.20;83.50;;;;;;4974903;28;92274;-62
2021/04/29 01:40:26;;;;;;;;;;;15.20;83.10;;;;;;4974552;28;91907;-62
2021/04/29 01:42:52;;;;;;;;;;;15.20;83.30;;;;;;4972670;28;93771;-62
2021/04/29 01:45:18;;;;;;;;;;;15.20;82.80;;;;;;4976459;28;93110;-61
2021/04/29 01:47:43;;;;;;;;;;;15.20;82.80;;;;;;4973745;28;93260;-61
2021/04/29 01:50:10;;;;;;;;;;;15.20;83.40;;;;;;4973403;28;93161;-62
2021/04/29 01:52:36;;;;;;;;;;;15.20;83.50;;;;;;4974603;28;93226;-62
2021/04/29 01:55:02;;;;;;;;;;;15.10;83.20;;;;;;4979708;28;93041;-62
2021/04/29 01:57:28;;;;;;;;;;;15.10;83.30;;;;;;4976544;28;92191;-61
2021/04/29 01:59:54;;;;;;;;;;;15.10;82.90;;;;;;4976075;28;92371;-62
2021/04/29 02:02:22;;;;;;;;;;;15.10;83.30;;;;;;4975055;28;92997;-61
2021/04/29 02:04:48;;;;;;;;;;;15.10;83.00;;;;;;4974800;28;91535;-61
2021/04/29 02:07:14;;;;;;;;;;;15.10;84.00;;;;;;4975709;28;93266;-61
2021/04/29 02:09:39;;;;;;;;;;;15.10;83.10;;;;;;4975310;28;93151;-62
2021/04/29 02:12:05;;;;;;;;;;;15.10;83.20;;;;;;4975681;28;93132;-62
2021/04/29 02:14:38;;;;;;;;;;;15.00;83.00;;;;;;4976126;28;93434;-62
2021/04/29 02:17:33;;;;;;;;;;;15.00;83.20;;;;;;4976696;28;93712;-61
2021/04/29 02:20:00;;;;;;;;;;;15.00;83.30;;;;;;4969241;28;93043;-61
2021/04/29 02:22:26;;;;;;;;;;;15.00;83.30;;;;;;4975795;28;95834;-61
2021/04/29 02:24:54;;;;;;;;;;;15.00;83.30;;;;;;4974763;28;92238;-62
2021/04/29 02:27:20;;;;;;;;;;;15.00;83.00;;;;;;4974001;28;92225;-62
2021/04/29 02:29:46;;;;;;;;;;;15.00;83.10;;;;;;4973455;28;91900;-61
2021/04/29 02:32:14;;;;;;;;;;;14.90;83.40;;;;;;4974437;28;92243;-61
2021/04/29 02:34:39;;;;;;;;;;;15.00;83.10;;;;;;4972946;28;93671;-61
2021/04/29 02:37:05;;;;;;;;;;;14.90;83.40;;;;;;4972925;28;94177;-62
2021/04/29 02:39:31;;;;;;;;;;;14.90;83.10;;;;;;4977212;28;92231;-62
2021/04/29 02:41:57;;;;;;;;;;;14.90;83.30;;;;;;4972087;28;94534;-61
2021/04/29 02:44:22;;;;;;;;;;;14.90;83.20;;;;;;4973889;28;93179;-61
2021/04/29 02:46:50;;;;;;;;;;;14.90;83.20;;;;;;4975485;28;93713;-62
2021/04/29 02:49:15;;;;;;;;;;;14.90;83.20;;;;;;4973833;28;94404;-62
2021/04/29 02:51:41;;;;;;;;;;;14.90;83.20;;;;;;4972044;28;92193;-62
2021/04/29 02:54:07;;;;;;;;;;;14.80;83.30;;;;;;4974172;28;91820;-61
2021/04/29 02:56:33;;;;;;;;;;;14.80;83.40;;;;;;4978366;28;93007;-62
2021/04/29 02:58:59;;;;;;;;;;;14.80;83.40;;;;;;4982487;28;92709;-62
2021/04/29 03:01:24;;;;;;;;;;;14.80;83.70;;;;;;4977851;28;93691;-61
2021/04/29 03:03:50;;;;;;;;;;;14.80;83.30;;;;;;4975959;28;93663;-61
2021/04/29 03:06:16;;;;;;;;;;;14.70;83.20;;;;;;4975836;28;92633;-61
2021/04/29 03:08:41;;;;;;;;;;;14.80;83.40;;;;;;4976586;28;94358;-61
2021/04/29 03:11:07;;;;;;;;;;;14.80;83.40;;;;;;4977324;28;92260;-62
2021/04/29 03:13:32;;;;;;;;;;;14.70;82.90;;;;;;4978005;28;93924;-61
2021/04/29 03:15:58;;;;;;;;;;;14.70;83.50;;;;;;4974503;28;95175;-62
2021/04/29 03:18:24;;;;;;;;;;;14.70;83.40;;;;;;4978351;28;92622;-61
2021/04/29 03:20:49;;;;;;;;;;;14.70;83.20;;;;;;4981332;28;93282;-61
2021/04/29 03:23:15;;;;;;;;;;;14.70;82.90;;;;;;4975690;28;93910;-61
2021/04/29 03:25:40;;;;;;;;;;;14.70;83.00;;;;;;4974854;28;93190;-61
2021/04/29 03:28:06;;;;;;;;;;;14.70;83.20;;;;;;4975115;28;94411;-61
2021/04/29 03:30:32;;;;;;;;;;;14.70;83.40;;;;;;4974893;28;92245;-61
2021/04/29 03:32:58;;;;;;;;;;;14.70;82.90;;;;;;4975331;28;92962;-61
2021/04/29 03:35:23;;;;;;;;;;;14.60;83.20;;;;;;4975519;28;93306;-62
2021/04/29 03:37:49;;;;;;;;;;;14.60;83.10;;;;;;4978163;28;92204;-62
2021/04/29 03:40:14;;;;;;;;;;;14.60;83.10;;;;;;4979162;28;92285;-62
2021/04/29 03:42:40;;;;;;;;;;;14.60;83.10;;;;;;4980410;28;92427;-62
2021/04/29 03:45:06;;;;;;;;;;;14.60;83.20;;;;;;4974416;28;92181;-61
2021/04/29 03:47:32;;;;;;;;;;;14.60;82.90;;;;;;4976689;28;94874;-62
2021/04/29 03:49:58;;;;;;;;;;;14.60;83.20;;;;;;4976306;28;93806;-61
2021/04/29 03:52:23;;;;;;;;;;;14.60;83.10;;;;;;4976232;28;92778;-62
2021/04/29 03:54:49;;;;;;;;;;;14.50;82.70;;;;;;4977212;28;92693;-62
2021/04/29 03:57:14;;;;;;;;;;;14.50;83.20;;;;;;4977249;28;93859;-61
2021/04/29 03:59:40;;;;;;;;;;;14.50;83.20;;;;;;4978837;28;92989;-62
2021/04/29 04:02:05;;;;;;;;;;;14.50;82.70;;;;;;4975707;28;92597;-62
2021/04/29 04:04:31;;;;;;;;;;;14.50;83.20;;;;;;4979183;28;93080;-61
2021/04/29 04:06:57;;;;;;;;;;;14.50;83.70;;;;;;4975032;28;93997;-61
2021/04/29 04:09:22;;;;;;;;;;;14.50;83.30;;;;;;4976101;28;92174;-61
2021/04/29 04:11:48;;;;;;;;;;;14.50;83.20;;;;;;4977568;28;92820;-61
2021/04/29 04:14:13;;;;;;;;;;;14.50;83.40;;;;;;4974158;28;94030;-61
2021/04/29 04:16:39;;;;;;;;;;;14.40;83.10;;;;;;4976586;28;92197;-62
2021/04/29 04:19:04;;;;;;;;;;;14.40;83.10;;;;;;4976530;28;92212;-61
2021/04/29 04:21:30;;;;;;;;;;;14.40;83.00;;;;;;4976580;28;93315;-61
2021/04/29 04:23:55;;;;;;;;;;;14.40;83.30;;;;;;4975221;28;92161;-62
2021/04/29 04:26:21;;;;;;;;;;;14.40;83.20;;;;;;4978024;28;92200;-61
2021/04/29 04:28:47;;;;;;;;;;;14.40;83.10;;;;;;4977145;28;92288;-61
2021/04/29 04:31:12;;;;;;;;;;;14.40;83.10;;;;;;4978977;28;92484;-62
2021/04/29 04:33:38;;;;;;;;;;;14.40;83.20;;;;;;4975912;28;94502;-61
2021/04/29 04:36:04;;;;;;;;;;;14.40;82.90;;;;;;4975410;28;92252;-62
2021/04/29 04:38:29;;;;;;;;;;;14.40;82.90;;;;;;4974175;28;93635;-62
2021/04/29 04:40:55;;;;;;;;;;;14.30;83.10;;;;;;4974389;28;92639;-61
2021/04/29 04:43:21;;;;;;;;;;;14.30;83.10;;;;;;4974334;28;92225;-61
2021/04/29 04:45:47;;;;;;;;;;;14.30;83.30;;;;;;4973937;28;94144;-62
2021/04/29 04:48:12;;;;;;;;;;;14.40;83.30;;;;;;4978621;28;93202;-62
2021/04/29 04:50:38;;;;;;;;;;;14.30;83.00;;;;;;4976311;28;92180;-61
2021/04/29 04:53:04;;;;;;;;;;;14.30;83.20;;;;;;4974349;28;92697;-61
2021/04/29 04:55:30;;;;;;;;;;;14.30;82.90;;;;;;4975139;28;91562;-62
2021/04/29 04:57:55;;;;;;;;;;;14.30;82.90;;;;;;4975531;28;93745;-62
2021/04/29 05:00:21;;;;;;;;;;;14.30;82.60;;;;;;4975849;28;94075;-62
2021/04/29 05:02:47;;;;;;;;;;;14.30;83.20;;;;;;4976947;28;93565;-62
2021/04/29 05:05:13;;;;;;;;;;;14.30;83.40;;;;;;4977048;28;93171;-61
2021/04/29 05:07:38;;;;;;;;;;;14.20;83.00;;;;;;4977548;28;94251;-61
2021/04/29 05:10:04;;;;;;;;;;;14.30;83.10;;;;;;4973904;28;93823;-62
2021/04/29 05:12:29;;;;;;;;;;;14.20;83.20;;;;;;4974120;28;94247;-62
2021/04/29 05:14:55;;;;;;;;;;;14.20;83.00;;;;;;4975567;28;92174;-62
2021/04/29 05:17:20;;;;;;;;;;;14.20;83.00;;;;;;4975764;28;92205;-62
2021/04/29 05:19:46;;;;;;;;;;;14.20;82.80;;;;;;4975490;28;92412;-61
2021/04/29 05:22:14;;;;;;;;;;;14.20;83.10;;;;;;4974488;28;92272;-61
2021/04/29 05:24:40;;;;;;;;;;;14.20;83.30;;;;;;4976795;28;94099;-61
2021/04/29 05:27:06;;;;;;;;;;;14.20;83.10;;;;;;4974238;28;95143;-61
2021/04/29 05:29:31;;;;;;;;;;;14.20;83.00;;;;;;4976387;28;92210;-61
2021/04/29 05:31:57;;;;;;;;;;;14.20;82.80;;;;;;4973622;28;92708;-61
2021/04/29 05:34:22;;;;;;;;;;;14.10;83.30;;;;;;4973605;28;92175;-62
2021/04/29 05:36:48;;;;;;;;;;;14.10;83.10;;;;;;4974426;28;93266;-61
2021/04/29 05:39:13;;;;;;;;;;;14.10;83.30;;;;;;4975118;28;92678;-61
2021/04/29 05:41:39;;;;;;;;;;;14.10;82.90;;;;;;4975205;28;92206;-61
2021/04/29 05:44:05;;;;;;;;;;;14.10;83.10;;;;;;4975527;28;92047;-61
2021/04/29 05:46:30;;;;;;;;;;;14.10;83.10;;;;;;4975823;28;92618;-61
2021/04/29 05:48:56;;;;;;;;;;;14.10;83.20;;;;;;4977558;28;92188;-61
2021/04/29 05:51:21;;;;;;;;;;;14.10;83.00;;;;;;4976721;28;94156;-61
2021/04/29 05:53:47;;;;;;;;;;;14.10;83.80;;;;;;4973170;28;92190;-61
2021/04/29 05:56:15;;;;;;;;;;;14.10;82.90;;;;;;4974500;28;92685;-62
2021/04/29 05:58:41;;;;;;;;;;;14.10;83.20;;;;;;4972614;28;94012;-61
2021/04/29 06:01:07;;;;;;;;;;;14.00;83.00;;;;;;4973329;28;93955;-61
2021/04/29 06:03:32;;;;;;;;;;;14.00;83.30;;;;;;4977454;28;92511;-62
2021/04/29 06:05:58;;;;;;;;;;;14.00;83.00;;;;;;4976375;28;92738;-61
2021/04/29 06:08:23;;;;;;;;;;;14.00;83.10;;;;;;4976888;28;91459;-62
2021/04/29 06:10:49;;;;;;;;;;;14.00;83.00;;;;;;4977209;28;93590;-61
2021/04/29 06:13:14;;;;;;;;;;;14.00;82.90;;;;;;4976695;28;94476;-61
2021/04/29 06:15:40;;;;;;;;;;;14.00;83.00;;;;;;4975750;28;93272;-61
2021/04/29 06:18:05;;;;;;;;;;;14.00;83.20;;;;;;4973529;28;93573;-61
2021/04/29 06:20:31;;;;;;;;;;;14.00;83.10;;;;;;4972563;28;92299;-61
2021/04/29 06:22:56;;;;;;;;;;;14.00;83.30;;;;;;4972893;28;92510;-61
2021/04/29 06:25:23;;;;;;;;;;;14.00;83.00;;;;;;4973493;28;93015;-61
2021/04/29 06:27:48;;;;;;;;;;;14.00;83.10;;;;;;4973504;28;92206;-61
2021/04/29 06:30:14;;;;;;;;;;;14.00;83.30;;;;;;4976979;28;93918;-61
2021/04/29 06:32:40;;;;;;;;;;;14.00;82.90;;;;;;4979037;28;92538;-62
2021/04/29 06:35:06;;;;;;;;;;;14.00;83.10;;;;;;4982520;28;92230;-61
2021/04/29 06:37:32;;;;;;;;;;;13.90;83.20;;;;;;4979609;28;92648;-61
2021/04/29 06:39:57;;;;;;;;;;;14.00;83.50;;;;;;4977788;28;94688;-61
2021/04/29 06:42:23;;;;;;;;;;;13.90;82.90;;;;;;4975766;28;92847;-61
2021/04/29 06:44:50;;;;;;;;;;;14.00;83.10;;;;;;4976412;28;92682;-61
2021/04/29 06:47:20;;;;;;;;;;;14.00;83.20;;;;;;4975961;28;92269;-61
2021/04/29 06:49:46;;;;;;;;;;;13.90;83.00;;;;;;4977718;28;93484;-61
2021/04/29 06:52:13;;;;;;;;;;;13.90;83.30;;;;;;4978244;28;92762;-61
2021/04/29 06:54:39;;;;;;;;;;;13.90;83.20;;;;;;4977061;28;92227;-61
2021/04/29 06:57:05;;;;;;;;;;;13.90;83.20;;;;;;4981430;28;91982;-62
2021/04/29 06:59:30;;;;;;;;;;;13.90;83.10;;;;;;4979250;28;92191;-61
2021/04/29 07:01:56;;;;;;;;;;;13.90;83.50;;;;;;4978792;28;93612;-61
2021/04/29 07:04:24;;;;;;;;;;;13.90;83.30;;;;;;4974563;28;94493;-61
2021/04/29 07:06:49;;;;;;;;;;;13.90;83.20;;;;;;4979609;28;92197;-62
2021/04/29 07:09:15;;;;;;;;;;;13.90;83.10;;;;;;4977860;28;92816;-61
2021/04/29 07:11:40;;;;;;;;;;;13.90;83.00;;;;;;4974921;28;94145;-61
2021/04/29 07:14:06;;;;;;;;;;;13.90;83.30;;;;;;4976607;28;92326;-61
2021/04/29 07:16:31;;;;;;;;;;;13.90;83.20;;;;;;4980188;28;92270;-61
2021/04/29 07:18:57;;;;;;;;;;;13.90;83.30;;;;;;4978920;28;92163;-61
2021/04/29 07:21:22;;;;;;;;;;;13.90;83.20;;;;;;4979773;28;93721;-61
2021/04/29 07:23:48;;;;;;;;;;;13.90;83.20;;;;;;4975937;28;93220;-61
2021/04/29 07:26:14;;;;;;;;;;;13.90;83.10;;;;;;4975441;28;92177;-61
2021/04/29 07:28:40;;;;;;;;;;;13.90;83.20;;;;;;4974547;28;93891;-61
2021/04/29 07:31:05;;;;;;;;;;;13.90;83.40;;;;;;4975219;28;94619;-61
2021/04/29 07:33:31;;;;;;;;;;;13.90;83.40;;;;;;4976735;28;92190;-61
2021/04/29 07:35:57;;;;;;;;;;;13.90;83.40;;;;;;4977976;28;92220;-61
2021/04/29 07:38:22;;;;;;;;;;;13.90;83.40;;;;;;4981336;28;92234;-62
2021/04/29 07:40:48;;;;;;;;;;;13.90;83.30;;;;;;4978001;28;93045;-61
2021/04/29 07:43:13;;;;;;;;;;;13.90;83.40;;;;;;4978550;28;92675;-61
2021/04/29 07:45:40;;;;;;;;;;;13.90;83.30;;;;;;4978903;28;91474;-61
2021/04/29 07:48:05;;;;;;;;;;;13.90;83.40;;;;;;4977110;28;93250;-61
2021/04/29 07:50:32;;;;;;;;;;;13.90;83.70;;;;;;4975298;28;96236;-61
2021/04/29 07:52:58;;;;;;;;;;;13.90;83.40;;;;;;4974881;28;93179;-61
2021/04/29 07:55:24;;;;;;;;;;;13.90;83.60;;;;;;4975663;28;93861;-61
2021/04/29 07:57:49;;;;;;;;;;;13.90;83.40;;;;;;4975900;28;92862;-61
2021/04/29 08:00:15;;;;;;;;;;;13.90;83.50;;;;;;4979898;28;92204;-61
2021/04/29 08:02:44;;;;;;;;;;;13.90;83.50;;;;;;4976720;28;94173;-61
2021/04/29 08:05:10;;;;;;;;;;;13.90;83.60;;;;;;4974691;28;92188;-61
2021/04/29 08:07:35;;;;;;;;;;;13.90;83.60;;;;;;4974946;28;94110;-61
2021/04/29 08:10:01;;;;;;;;;;;13.90;83.70;;;;;;4975956;28;92535;-61
2021/04/29 08:12:27;;;;;;;;;;;13.90;83.70;;;;;;4976909;28;92939;-61
2021/04/29 08:14:56;;;;;;;;;;;13.90;83.70;;;;;;4978857;28;92743;-61
2021/04/29 08:17:21;;;;;;;;;;;13.90;83.70;;;;;;4975677;28;94222;-61
2021/04/29 08:19:47;;;;;;;;;;;13.90;83.70;;;;;;4979196;28;92705;-62
2021/04/29 08:22:12;;;;;;;;;;;13.90;83.80;;;;;;4981444;28;92470;-61
2021/04/29 08:24:38;;;;;;;;;;;13.90;83.90;;;;;;4979116;28;93257;-61
2021/04/29 08:27:04;;;;;;;;;;;13.90;84.00;;;;;;4978225;28;92204;-61
2021/04/29 08:29:29;;;;;;;;;;;13.90;83.90;;;;;;4977017;28;92711;-61
2021/04/29 08:31:55;;;;;;;;;;;13.90;84.00;;;;;;4976763;28;92265;-62
2021/04/29 08:34:20;;;;;;;;;;;13.90;84.00;;;;;;4976618;28;92659;-61
2021/04/29 08:36:46;;;;;;;;;;;13.90;83.90;;;;;;4974752;28;92909;-61
2021/04/29 08:39:11;;;;;;;;;;;13.90;84.00;;;;;;4974634;28;92189;-61
2021/04/29 08:41:37;;;;;;;;;;;13.90;84.00;;;;;;4973141;28;93186;-61
2021/04/29 08:44:03;;;;;;;;;;;13.90;84.00;;;;;;4977681;28;94146;-61
2021/04/29 08:46:28;;;;;;;;;;;13.90;84.00;;;;;;4977847;28;92643;-61
2021/04/29 08:48:55;;;;;;;;;;;13.90;84.10;;;;;;4977529;28;93845;-61
2021/04/29 08:51:21;;;;;;;;;;;13.90;84.10;;;;;;4976594;28;92241;-61
2021/04/29 08:53:48;;;;;;;;;;;13.90;84.20;;;;;;4974967;28;94094;-61
2021/04/29 08:56:14;;;;;;;;;;;13.90;84.20;;;;;;4975810;28;93876;-61
2021/04/29 08:58:40;;;;;;;;;;;13.90;84.20;;;;;;4977907;28;91522;-61
2021/04/29 09:01:05;;;;;;;;;;;14.00;84.30;;;;;;4976722;28;92161;-61
2021/04/29 09:03:32;;;;;;;;;;;14.00;84.40;;;;;;4975394;28;93174;-61
2021/04/29 09:05:58;;;;;;;;;;;14.00;84.30;;;;;;4976329;28;93133;-61
2021/04/29 09:08:28;;;;;;;;;;;13.90;84.30;;;;;;4976364;28;92925;-61
2021/04/29 09:10:53;;;;;;;;;;;14.00;84.30;;;;;;4973367;28;93711;-61
2021/04/29 09:13:20;;;;;;;;;;;14.00;84.40;;;;;;4973483;28;92488;-61
2021/04/29 09:15:46;;;;;;;;;;;14.00;84.40;;;;;;4977386;28;93257;-61
2021/04/29 09:18:15;;;;;;;;;;;14.00;84.40;;;;;;4976320;28;92205;-61
2021/04/29 09:20:54;;;;;;;;;;;14.00;84.30;;;;;;4977052;28;92439;-61
2021/04/29 09:23:24;;;;;;;;;;;14.00;84.40;;;;;;4977075;28;92502;-62
2021/04/29 09:25:53;;;;;;;;;;;14.00;84.50;;;;;;4976946;28;92273;-61
2021/04/29 09:28:20;;;;;;;;;;;14.00;84.50;;;;;;4974878;28;93164;-61
2021/04/29 09:30:45;;;;;;;;;;;14.00;84.50;;;;;;4974412;28;93156;-61
2021/04/29 09:33:11;;;;;;;;;;;14.10;84.50;;;;;;4974430;28;94540;-61
2021/04/29 09:35:38;;;;;;;;;;;14.10;84.50;;;;;;4973090;28;93314;-61
2021/04/29 09:38:09;;;;;;;;;;;14.00;84.50;;;;;;4976959;28;92219;-61
2021/04/29 09:40:38;;;;;;;;;;;14.10;84.60;;;;;;4976383;28;93494;-61
2021/04/29 09:43:06;;;;;;;;;;;14.10;84.60;;;;;;4976298;28;93662;-61
2021/04/29 09:45:33;;;;;;;;;;;14.10;84.60;;;;;;4974349;28;92178;-61
2021/04/29 09:47:58;;;;;;;;;;;14.10;84.70;;;;;;4976372;28;94033;-61
2021/04/29 09:50:25;;;;;;;;;;;14.10;84.60;;;;;;4972975;28;92245;-61
2021/04/29 09:52:57;;;;;;;;;;;14.10;84.70;;;;;;4977310;28;92544;-61
2021/04/29 09:55:27;;;;;;;;;;;14.10;84.70;;;;;;4974808;28;93999;-61
2021/04/29 09:58:09;;;;;;;;;;;14.20;84.80;;;;;;4977028;28;92226;-61
2021/04/29 10:00:34;;;;;;;;;;;14.20;84.80;;;;;;4975759;28;93985;-61
2021/04/29 10:03:01;;;;;;;;;;;14.20;85.40;;;;;;4975027;28;93209;-61
2021/04/29 10:05:26;;;;;;;;;;;14.20;84.70;;;;;;4976085;28;92293;-61
2021/04/29 10:07:52;;;;;;;;;;;14.20;84.70;;;;;;4977402;28;93726;-61
2021/04/29 10:10:19;;;;;;;;;;;14.30;84.90;;;;;;4979058;28;94561;-61
2021/04/29 10:12:44;;;;;;;;;;;14.30;84.90;;;;;;4981521;28;92583;-62
2021/04/29 10:15:10;;;;;;;;;;;14.30;85.00;;;;;;4979086;28;94257;-61
2021/04/29 10:17:35;;;;;;;;;;;14.30;84.90;;;;;;4979058;28;92208;-61
2021/04/29 10:20:01;;;;;;;;;;;14.30;85.00;;;;;;4979453;28;93157;-61
2021/04/29 10:22:27;;;;;;;;;;;14.30;84.90;;;;;;4979503;28;93692;-61
2021/04/29 10:24:53;;;;;;;;;;;14.40;85.00;;;;;;4980078;28;92161;-61
2021/04/29 10:27:22;;;;;;;;;;;14.30;85.00;;;;;;4978943;28;94232;-61
2021/04/29 10:29:48;;;;;;;;;;;14.40;85.10;;;;;;4978910;28;92718;-61
2021/04/29 10:32:14;;;;;;;;;;;14.40;84.90;;;;;;4981933;28;92323;-61
2021/04/29 10:34:49;;;;;;;;;;;14.40;84.90;;;;;;4976501;28;92712;-61
2021/04/29 10:37:15;;;;;;;;;;;14.40;84.90;;;;;;4977622;28;91556;-61
2021/04/29 10:39:51;;;;;;;;;;;14.50;84.90;;;;;;4976304;28;92985;-61
2021/04/29 10:42:17;;;;;;;;;;;14.50;84.90;;;;;;4977616;28;94311;-61
2021/04/29 10:44:46;;;;;;;;;;;14.50;84.90;;;;;;4979506;28;93145;-61
2021/04/29 10:47:25;;;;;;;;;;;14.50;85.00;;;;;;4979527;28;93502;-62
2021/04/29 10:49:51;;;;;;;;;;;14.50;85.00;;;;;;4975071;28;94509;-61
2021/04/29 10:52:17;;;;;;;;;;;14.60;85.00;;;;;;4978110;28;93857;-61
2021/04/29 10:54:53;;;;;;;;;;;14.60;85.10;;;;;;4980613;28;94072;-61
2021/04/29 10:57:19;;;;;;;;;;;14.60;85.10;;;;;;4980140;28;92215;-62
2021/04/29 10:59:54;;;;;;;;;;;14.60;85.10;;;;;;4978400;28;92395;-61
2021/04/29 11:02:39;;;;;;;;;;;14.60;85.20;;;;;;4978655;28;94403;-62
2021/04/29 11:05:06;;;;;;;;;;;14.60;85.10;;;;;;4977100;28;92193;-61
2021/04/29 11:07:32;;;;;;;;;;;14.70;85.20;;;;;;4975199;28;92547;-61
2021/04/29 11:09:59;;;;;;;;;;;14.70;85.10;;;;;;4978174;28;93962;-61
2021/04/29 11:12:39;;;;;;;;;;;14.70;85.10;;;;;;4979169;28;92280;-61
2021/04/29 11:15:05;;;;;;;;;;;14.80;85.10;;;;;;4981722;28;94254;-61
2021/04/29 11:17:30;;;;;;;;;;;14.80;85.10;;;;;;4978079;28;92199;-61
2021/04/29 11:19:57;;;;;;;;;;;14.80;85.20;;;;;;4977668;28;92208;-62
2021/04/29 11:22:26;;;;;;;;;;;14.80;85.20;;;;;;4974883;28;94677;-61
2021/04/29 11:24:52;;;;;;;;;;;14.80;85.40;;;;;;4976999;28;92197;-61
2021/04/29 11:27:25;;;;;;;;;;;14.80;85.30;;;;;;4976905;28;91913;-61
2021/04/29 11:29:55;;;;;;;;;;;14.90;85.40;;;;;;4978561;28;94523;-61
2021/04/29 11:32:20;;;;;;;;;;;14.90;85.40;;;;;;4979192;28;92171;-61
2021/04/29 11:34:47;;;;;;;;;;;14.90;85.40;;;;;;4978029;28;93146;-61
2021/04/29 11:37:14;;;;;;;;;;;14.90;85.50;;;;;;4978710;28;93419;-61
2021/04/29 11:39:40;;;;;;;;;;;15.00;85.50;;;;;;4976573;28;93893;-61
2021/04/29 11:42:05;;;;;;;;;;;14.90;85.60;;;;;;4979185;28;93083;-61
2021/04/29 11:44:31;;;;;;;;;;;15.00;85.70;;;;;;4978359;28;92237;-62
2021/04/29 11:46:59;;;;;;;;;;;15.00;85.60;;;;;;4978561;28;94067;-61
2021/04/29 11:49:24;;;;;;;;;;;15.00;85.60;;;;;;4975286;28;94972;-61
2021/04/29 11:51:50;;;;;;;;;;;15.10;85.70;;;;;;4976815;28;91445;-61
2021/04/29 11:54:18;;;;;;;;;;;15.00;85.50;;;;;;4974591;28;92171;-61
2021/04/29 11:56:45;;;;;;;;;;;15.10;85.60;;;;;;4977397;28;93607;-61
2021/04/29 11:59:11;;;;;;;;;;;15.10;85.80;;;;;;4977323;28;93181;-61
2021/04/29 12:01:37;;;;;;;;;;;15.10;85.80;;;;;;4974205;28;94484;-61
2021/04/29 12:04:16;;;;;;;;;;;15.10;85.60;;;;;;4976961;28;92374;-61
2021/04/29 12:06:47;;;;;;;;;;;15.10;85.70;;;;;;4975350;28;92224;-61
2021/04/29 12:09:13;;;;;;;;;;;15.20;85.90;;;;;;4975434;28;93203;-61
2021/04/29 12:11:38;;;;;;;;;;;15.20;85.80;;;;;;4976809;28;92981;-61
2021/04/29 12:14:04;;;;;;;;;;;15.30;86.00;;;;;;4979102;28;93302;-61
2021/04/29 12:16:30;;;;;;;;;;;15.30;85.90;;;;;;4978287;28;91919;-62
2021/04/29 12:18:56;;;;;;;;;;;15.30;86.00;;;;;;4977006;28;92298;-61
2021/04/29 12:21:23;;;;;;;;;;;15.30;85.90;;;;;;4979472;28;93667;-61
2021/04/29 12:23:56;;;;;;;;;;;15.40;85.90;;;;;;4976511;28;93128;-61
2021/04/29 12:26:28;;;;;;;;;;;15.40;86.10;;;;;;4974331;28;94490;-61
2021/04/29 12:28:58;;;;;;;;;;;15.40;85.80;;;;;;4977308;28;92805;-61
2021/04/29 12:31:23;;;;;;;;;;;15.40;85.70;;;;;;4978798;28;92234;-61
2021/04/29 12:34:00;;;;;;;;;;;15.50;85.80;;;;;;4978174;28;92656;-61
2021/04/29 12:36:26;;;;;;;;;;;15.50;86.00;;;;;;4975101;28;93892;-61
2021/04/29 12:38:51;;;;;;;;;;;15.50;85.90;;;;;;4975570;28;92272;-61
2021/04/29 12:41:18;;;;;;;;;;;15.50;86.00;;;;;;4975532;28;92181;-61
2021/04/29 12:43:55;;;;;;;;;;;15.50;86.40;;;;;;4979531;28;93768;-62
2021/04/29 12:46:28;;;;;;;;;;;15.60;85.80;;;;;;4977416;28;92542;-61
2021/04/29 12:48:53;;;;;;;;;;;15.60;86.20;;;;;;4973530;28;93880;-61
2021/04/29 12:51:20;;;;;;;;;;;15.60;86.10;;;;;;4974628;28;92212;-62
2021/04/29 12:53:58;;;;;;;;;;;15.70;85.80;;;;;;4975062;28;93093;-61
2021/04/29 12:56:25;;;;;;;;;;;15.70;86.20;;;;;;4975741;28;94394;-61
2021/04/29 12:58:51;;;;;;;;;;;15.70;86.30;;;;;;4973915;28;92232;-61
2021/04/29 13:01:20;;;;;;;;;;;15.80;86.00;;;;;;4974206;28;93767;-61
2021/04/29 13:03:46;;;;;;;;;;;15.80;86.00;;;;;;4973457;28;92458;-61
2021/04/29 13:06:12;;;;;;;;;;;15.80;86.50;;;;;;4978427;28;93097;-61
2021/04/29 13:08:47;;;;;;;;;;;15.80;85.70;;;;;;4977163;28;94682;-61
2021/04/29 13:11:12;;;;;;;;;;;15.90;86.30;;;;;;4978250;28;92195;-61
2021/04/29 13:13:38;;;;;;;;;;;15.90;86.20;;;;;;4976675;28;93861;-61
2021/04/29 13:16:03;;;;;;;;;;;16.00;86.10;;;;;;4976298;28;92292;-62
2021/04/29 13:18:29;;;;;;;;;;;15.90;86.50;;;;;;4977076;28;92201;-61
2021/04/29 13:20:55;;;;;;;;;;;16.00;86.20;;;;;;4976226;28;92192;-61
2021/04/29 13:23:21;;;;;;;;;;;16.00;86.20;;;;;;4975023;28;92187;-61
2021/04/29 13:25:47;;;;;;;;;;;16.00;86.50;;;;;;4977112;28;92244;-61
2021/04/29 13:28:12;;;;;;;;;;;16.10;86.00;;;;;;4973281;28;94822;-61
2021/04/29 13:30:38;;;;;;;;;;;16.10;86.40;;;;;;4973495;28;91479;-61
2021/04/29 13:33:06;;;;;;;;;;;16.20;86.20;;;;;;4975826;28;93862;-61
2021/04/29 13:35:32;;;;;;;;;;;16.20;86.40;;;;;;4973954;28;94547;-61
2021/04/29 13:37:57;;;;;;;;;;;16.20;86.20;;;;;;4973928;28;93225;-61
2021/04/29 13:40:25;;;;;;;;;;;16.30;86.30;;;;;;4973411;28;93529;-61
2021/04/29 13:42:50;;;;;;;;;;;16.30;86.20;;;;;;4977361;28;92669;-62
2021/04/29 13:45:16;;;;;;;;;;;16.30;86.30;;;;;;4977334;28;92176;-61
2021/04/29 13:47:41;;;;;;;;;;;16.40;86.40;;;;;;4978920;28;92318;-61
2021/04/29 13:50:07;;;;;;;;;;;16.40;86.20;;;;;;4977644;28;93383;-61
2021/04/29 13:52:33;;;;;;;;;;;16.40;86.40;;;;;;4976801;28;94227;-61
2021/04/29 13:54:58;;;;;;;;;;;16.40;86.80;;;;;;4976229;28;92422;-61
2021/04/29 13:57:24;;;;;;;;;;;16.40;86.40;;;;;;4975401;28;92236;-61
2021/04/29 13:59:50;;;;;;;;;;;16.50;86.40;;;;;;4974421;28;92298;-61
2021/04/29 14:02:15;;;;;;;;;;;16.50;86.40;;;;;;4972167;28;95188;-61
2021/04/29 14:04:41;;;;;;;;;;;16.50;86.50;;;;;;4972371;28;93521;-61
2021/04/29 14:07:07;;;;;;;;;;;16.50;86.30;;;;;;4973925;28;92721;-61
2021/04/29 14:09:32;;;;;;;;;;;16.50;86.40;;;;;;4975990;28;94563;-61
2021/04/29 14:11:58;;;;;;;;;;;16.50;86.40;;;;;;4974841;28;92381;-61
2021/04/29 14:14:23;;;;;;;;;;;16.60;86.60;;;;;;4974152;28;93250;-61